createdAt,value
2023-04-10T00:00:14.822Z,94548.27
2023-04-10T00:01:08.708Z,94550.15
2023-04-10T00:01:42.446Z,94547.67
2023-04-10T00:02:16.292Z,94547.48
2023-04-10T00:02:50.152Z,94552.10
2023-04-10T00:03:24.868Z,94548.77
2023-04-10T00:03:59.221Z,94547.01
2023-04-10T00:04:33.448Z,94550.48
2023-04-10T00:05:08.388Z,94545.04
2023-04-10T00:05:42.920Z,94545.09
2023-04-10T00:06:16.798Z,94546.75
2023-04-10T00:06:51.328Z,94545.76
2023-04-10T00:07:27.882Z,94546.30
2023-04-10T00:08:03.192Z,94544.84
2023-04-10T00:08:36.922Z,94548.73
2023-04-10T00:09:11.256Z,94545.08
2023-04-10T00:09:44.966Z,94547.70
2023-04-10T00:10:22.643Z,94549.84
2023-04-10T00:11:01.864Z,94547.77
2023-04-10T00:11:39.007Z,94546.33
2023-04-10T00:12:12.346Z,94547.30
2023-04-10T00:12:46.698Z,94550.55
2023-04-10T00:13:20.786Z,94543.59
2023-04-10T00:13:54.866Z,94545.91
2023-04-10T00:14:29.010Z,94544.70
2023-04-10T00:15:02.603Z,94542.98
2023-04-10T00:15:36.310Z,94542.73
2023-04-10T00:16:09.870Z,94541.81
2023-04-10T00:16:43.406Z,94543.02
2023-04-10T00:17:17.024Z,94545.86
2023-04-10T00:17:55.454Z,94545.33
2023-04-10T00:18:29.404Z,94544.20
2023-04-10T00:19:02.944Z,94544.57
2023-04-10T00:19:36.764Z,94543.29
2023-04-10T00:20:10.556Z,94542.49
2023-04-10T00:20:43.910Z,94542.04
2023-04-10T00:21:17.698Z,94544.16
2023-04-10T00:21:51.556Z,94542.82
2023-04-10T00:22:26.164Z,94541.54
2023-04-10T00:22:59.808Z,94540.88
2023-04-10T00:23:34.853Z,94540.84
2023-04-10T00:24:08.718Z,94541.27
2023-04-10T00:24:44.884Z,94539.06
2023-04-10T00:25:18.571Z,94535.98
2023-04-10T00:25:52.076Z,94541.58
2023-04-10T00:26:27.063Z,94539.45
2023-04-10T00:27:01.954Z,94538.66
2023-04-10T00:27:35.566Z,94534.45
2023-04-10T00:28:09.148Z,94534.97
2023-04-10T00:28:42.674Z,94533.96
2023-04-10T00:29:16.356Z,94535.30
2023-04-10T00:29:50.238Z,94536.42
2023-04-10T00:30:24.075Z,94531.20
2023-04-10T00:30:57.636Z,94532.39
2023-04-10T00:31:32.056Z,94534.76
2023-04-10T00:32:05.746Z,94529.56
2023-04-10T00:32:39.336Z,94532.89
2023-04-10T00:33:12.973Z,94532.63
2023-04-10T00:33:46.564Z,94533.39
2023-04-10T00:34:20.084Z,94533.93
2023-04-10T00:34:53.921Z,94529.77
2023-04-10T00:35:27.403Z,94529.21
2023-04-10T00:36:00.921Z,94529.53
2023-04-10T00:36:34.959Z,94531.41
2023-04-10T00:37:08.466Z,94527.13
2023-04-10T00:37:42.142Z,94525.86
2023-04-10T00:38:15.658Z,94526.17
2023-04-10T00:38:50.082Z,94526.41
2023-04-10T00:39:23.574Z,94524.05
2023-04-10T00:39:57.216Z,94528.61
2023-04-10T00:40:30.756Z,94526.04
2023-04-10T00:41:04.599Z,94521.48
2023-04-10T00:41:38.165Z,94524.39
2023-04-10T00:42:11.613Z,94520.08
2023-04-10T00:42:45.538Z,94521.35
2023-04-10T00:43:20.532Z,94521.99
2023-04-10T00:43:57.838Z,94519.04
2023-04-10T00:44:31.826Z,94520.48
2023-04-10T00:45:05.830Z,94518.02
2023-04-10T00:45:42.034Z,94518.53
2023-04-10T00:46:16.251Z,94518.86
2023-04-10T00:46:49.957Z,94520.87
2023-04-10T00:47:23.681Z,94509.59
2023-04-10T00:47:58.157Z,94518.72
2023-04-10T00:48:31.794Z,94514.79
2023-04-10T00:49:06.476Z,94514.36
2023-04-10T00:49:41.623Z,94514.57
2023-04-10T00:50:15.085Z,94513.88
2023-04-10T00:50:48.732Z,94512.52
2023-04-10T00:51:23.296Z,94511.13
2023-04-10T00:51:58.335Z,94510.26
2023-04-10T00:52:32.926Z,94507.17
2023-04-10T00:53:06.720Z,94512.56
2023-04-10T00:53:40.254Z,94506.88
2023-04-10T00:54:14.173Z,94509.67
2023-04-10T00:54:47.908Z,94510.71
2023-04-10T00:55:21.522Z,94510.74
2023-04-10T00:55:56.472Z,94508.70
2023-04-10T00:56:33.819Z,94510.97
2023-04-10T00:57:07.744Z,94507.52
2023-04-10T00:57:46.331Z,94511.80
2023-04-10T00:58:19.831Z,94508.13
2023-04-10T00:58:53.375Z,94510.27
2023-04-10T00:59:26.934Z,94511.96
2023-04-10T01:00:00.942Z,94509.68
2023-04-10T01:00:34.754Z,94510.84
2023-04-10T01:01:08.890Z,94512.70
2023-04-10T01:01:42.426Z,94513.88
2023-04-10T01:02:16.034Z,94511.04
2023-04-10T01:02:50.676Z,94512.84
2023-04-10T01:03:25.628Z,94510.95
2023-04-10T01:04:00.154Z,94513.12
2023-04-10T01:04:34.801Z,94512.11
2023-04-10T01:05:09.505Z,94511.22
2023-04-10T01:05:51.950Z,94513.90
2023-04-10T01:06:37.704Z,94512.85
2023-04-10T01:07:41.763Z,94514.70
2023-04-10T01:08:26.985Z,94514.27
2023-04-10T01:09:11.657Z,94508.88
2023-04-10T01:09:53.897Z,94513.00
2023-04-10T01:10:38.825Z,94508.40
2023-04-10T01:11:45.527Z,94510.05
2023-04-10T01:13:06.017Z,94511.46
2023-04-10T01:14:05.914Z,94509.55
2023-04-10T01:15:07.248Z,94511.08
2023-04-10T01:15:50.289Z,94515.63
2023-04-10T01:16:29.954Z,94513.91
2023-04-10T01:17:22.225Z,94517.11
2023-04-10T01:18:14.072Z,94519.95
2023-04-10T01:19:17.921Z,94517.85
2023-04-10T01:20:10.618Z,94513.74
2023-04-10T01:20:44.513Z,94518.27
2023-04-10T01:21:18.534Z,94517.67
2023-04-10T01:21:55.597Z,94511.33
2023-04-10T01:22:42.074Z,94515.44
2023-04-10T01:23:59.492Z,94516.63
2023-04-10T01:25:14.195Z,94512.52
2023-04-10T01:25:59.647Z,94513.71
2023-04-10T01:26:51.748Z,94510.91
2023-04-10T01:27:40.601Z,94509.24
2023-04-10T01:28:20.223Z,94510.90
2023-04-10T01:29:09.757Z,94511.34
2023-04-10T01:29:48.488Z,94511.05
2023-04-10T01:30:23.310Z,94511.52
2023-04-10T01:31:01.598Z,94507.98
2023-04-10T01:31:46.715Z,94510.54
2023-04-10T01:32:23.212Z,94508.39
2023-04-10T01:33:02.282Z,94509.41
2023-04-10T01:33:50.907Z,94508.38
2023-04-10T01:34:28.325Z,94509.58
2023-04-10T01:35:07.821Z,94510.70
2023-04-10T01:35:43.358Z,94510.50
2023-04-10T01:36:28.305Z,94513.02
2023-04-10T01:37:05.515Z,94513.35
2023-04-10T01:37:43.959Z,94511.75
2023-04-10T01:38:19.462Z,94517.40
2023-04-10T01:38:54.879Z,94515.01
2023-04-10T01:39:30.708Z,94516.64
2023-04-10T01:40:10.772Z,94512.31
2023-04-10T01:40:50.423Z,94515.52
2023-04-10T01:41:33.360Z,94519.09
2023-04-10T01:42:09.293Z,94514.85
2023-04-10T01:42:48.981Z,94514.39
2023-04-10T01:43:23.564Z,94514.36
2023-04-10T01:43:59.570Z,94517.04
2023-04-10T01:44:36.900Z,94516.08
2023-04-10T01:45:16.577Z,94515.84
2023-04-10T01:45:53.362Z,94510.99
2023-04-10T01:46:28.428Z,94511.86
2023-04-10T01:47:03.360Z,94509.27
2023-04-10T01:47:37.120Z,94509.91
2023-04-10T01:48:11.804Z,94511.46
2023-04-10T01:48:46.886Z,94512.41
2023-04-10T01:50:44.003Z,94512.43
2023-04-10T01:51:18.067Z,94512.86
2023-04-10T01:51:52.106Z,94515.06
2023-04-10T01:52:27.259Z,94508.70
2023-04-10T01:53:10.907Z,94511.69
2023-04-10T01:53:46.360Z,94513.30
2023-04-10T01:54:20.580Z,94511.41
2023-04-10T01:54:55.181Z,94511.77
2023-04-10T01:55:37.715Z,94512.30
2023-04-10T01:56:13.929Z,94508.70
2023-04-10T01:56:53.115Z,94511.13
2023-04-10T01:57:26.993Z,94509.80
2023-04-10T01:58:04.951Z,94510.77
2023-04-10T01:58:38.772Z,94514.38
2023-04-10T01:59:13.132Z,94510.98
2023-04-10T01:59:46.967Z,94511.07
2023-04-10T02:00:20.961Z,94511.20
2023-04-10T02:00:54.493Z,94511.98
2023-04-10T02:01:30.261Z,94509.36
2023-04-10T02:02:05.137Z,94506.66
2023-04-10T02:02:38.810Z,94500.86
2023-04-10T02:03:12.607Z,94506.33
2023-04-10T02:03:46.838Z,94502.14
2023-04-10T02:04:20.837Z,94507.59
2023-04-10T02:04:54.423Z,94505.17
2023-04-10T02:05:33.925Z,94505.17
2023-04-10T02:06:15.766Z,94504.15
2023-04-10T02:06:49.166Z,94504.03
2023-04-10T02:07:31.854Z,94503.41
2023-04-10T02:08:15.897Z,94503.23
2023-04-10T02:08:57.868Z,94503.45
2023-04-10T02:09:43.426Z,94503.72
2023-04-10T02:10:30.011Z,94505.52
2023-04-10T02:11:18.283Z,94508.96
2023-04-10T02:11:54.640Z,94509.19
2023-04-10T02:12:44.429Z,94511.52
2023-04-10T02:13:23.752Z,94513.16
2023-04-10T02:14:02.433Z,94514.84
2023-04-10T02:14:39.565Z,94514.23
2023-04-10T02:15:13.640Z,94515.59
2023-04-10T02:15:48.100Z,94516.48
2023-04-10T02:16:23.225Z,94516.08
2023-04-10T02:16:57.218Z,94517.53
2023-04-10T02:17:31.746Z,94515.73
2023-04-10T02:18:06.816Z,94513.57
2023-04-10T02:18:42.616Z,94511.83
2023-04-10T02:19:17.820Z,94511.39
2023-04-10T02:19:53.548Z,94513.27
2023-04-10T02:20:27.253Z,94508.50
2023-04-10T02:21:01.886Z,94507.03
2023-04-10T02:21:36.442Z,94507.00
2023-04-10T02:22:09.946Z,94506.26
2023-04-10T02:22:44.335Z,94509.81
2023-04-10T02:23:18.433Z,94506.96
2023-04-10T02:23:52.305Z,94508.38
2023-04-10T02:24:26.277Z,94507.94
2023-04-10T02:24:59.989Z,94506.36
2023-04-10T02:25:34.025Z,94503.54
2023-04-10T02:26:09.078Z,94504.46
2023-04-10T02:26:49.960Z,94505.66
2023-04-10T02:27:35.167Z,94505.88
2023-04-10T02:28:09.152Z,94503.70
2023-04-10T02:28:42.613Z,94505.38
2023-04-10T02:29:16.122Z,94502.34
2023-04-10T02:29:49.557Z,94502.20
2023-04-10T02:30:23.756Z,94501.99
2023-04-10T02:30:57.710Z,94504.33
2023-04-10T02:31:31.089Z,94489.85
2023-04-10T02:32:05.116Z,94503.11
2023-04-10T02:32:38.576Z,94502.64
2023-04-10T02:33:14.534Z,94504.41
2023-04-10T02:33:48.447Z,94501.38
2023-04-10T02:34:21.918Z,94503.83
2023-04-10T02:34:56.652Z,94503.90
2023-04-10T02:35:29.994Z,94500.45
2023-04-10T02:36:03.760Z,94503.35
2023-04-10T02:36:38.974Z,94504.84
2023-04-10T02:37:12.531Z,94506.29
2023-04-10T02:37:47.706Z,94504.13
2023-04-10T02:38:21.655Z,94502.65
2023-04-10T02:38:55.299Z,94506.80
2023-04-10T02:39:29.650Z,94503.05
2023-04-10T02:40:03.357Z,94504.16
2023-04-10T02:40:43.389Z,94501.16
2023-04-10T02:41:20.979Z,94502.05
2023-04-10T02:41:54.533Z,94503.38
2023-04-10T02:42:28.025Z,94506.84
2023-04-10T02:43:03.388Z,94505.73
2023-04-10T02:43:37.683Z,94501.33
2023-04-10T02:44:11.337Z,94502.13
2023-04-10T02:44:45.008Z,94504.17
2023-04-10T02:45:18.648Z,94505.07
2023-04-10T02:45:52.356Z,94506.56
2023-04-10T02:46:29.677Z,94503.98
2023-04-10T02:47:03.935Z,94504.27
2023-04-10T02:47:37.853Z,94505.60
2023-04-10T02:48:11.493Z,94503.91
2023-04-10T02:48:45.596Z,94503.48
2023-04-10T02:49:19.131Z,94500.77
2023-04-10T02:49:52.592Z,94502.12
2023-04-10T02:50:29.891Z,94500.96
2023-04-10T02:51:04.052Z,94502.48
2023-04-10T02:51:37.681Z,94502.34
2023-04-10T02:52:11.488Z,94498.68
2023-04-10T02:52:45.056Z,94501.86
2023-04-10T02:53:20.336Z,94501.63
2023-04-10T02:53:53.969Z,94502.01
2023-04-10T02:54:34.677Z,94505.15
2023-04-10T02:55:08.356Z,94504.52
2023-04-10T02:55:43.181Z,94505.80
2023-04-10T02:56:16.854Z,94502.91
2023-04-10T02:56:50.621Z,94501.38
2023-04-10T02:57:24.157Z,94500.66
2023-04-10T02:57:57.735Z,94504.18
2023-04-10T02:58:31.868Z,94506.42
2023-04-10T02:59:06.135Z,94501.17
2023-04-10T02:59:39.803Z,94504.86
2023-04-10T03:00:14.308Z,94505.14
2023-04-10T03:01:09.968Z,94502.64
2023-04-10T03:01:47.564Z,94501.66
2023-04-10T03:02:21.980Z,94501.92
2023-04-10T03:02:56.559Z,94502.48
2023-04-10T03:03:31.110Z,94500.94
2023-04-10T03:04:05.571Z,94501.34
2023-04-10T03:04:43.375Z,94500.77
2023-04-10T03:05:16.975Z,94501.73
2023-04-10T03:05:50.698Z,94502.59
2023-04-10T03:06:27.516Z,94502.02
2023-04-10T03:07:02.080Z,94503.54
2023-04-10T03:07:35.848Z,94504.64
2023-04-10T03:08:10.121Z,94503.67
2023-04-10T03:08:43.535Z,94501.14
2023-04-10T03:09:18.051Z,94503.98
2023-04-10T03:09:51.602Z,94501.77
2023-04-10T03:10:25.078Z,94502.88
2023-04-10T03:10:58.513Z,94503.80
2023-04-10T03:11:31.968Z,94501.70
2023-04-10T03:12:05.583Z,94504.04
2023-04-10T03:12:38.921Z,94501.86
2023-04-10T03:13:12.544Z,94502.58
2023-04-10T03:13:46.172Z,94503.16
2023-04-10T03:14:20.022Z,94505.04
2023-04-10T03:14:53.753Z,94502.52
2023-04-10T03:15:27.256Z,94498.92
2023-04-10T03:16:00.750Z,94502.09
2023-04-10T03:16:34.618Z,94501.39
2023-04-10T03:17:09.907Z,94499.61
2023-04-10T03:17:43.698Z,94500.16
2023-04-10T03:18:17.389Z,94503.16
2023-04-10T03:18:51.887Z,94497.86
2023-04-10T03:19:26.901Z,94501.97
2023-04-10T03:20:00.592Z,94498.02
2023-04-10T03:20:34.516Z,94495.92
2023-04-10T03:21:09.781Z,94498.37
2023-04-10T03:21:43.249Z,94496.30
2023-04-10T03:22:16.617Z,94496.69
2023-04-10T03:22:50.976Z,94495.40
2023-04-10T03:23:24.544Z,94491.40
2023-04-10T03:23:58.250Z,94493.60
2023-04-10T03:24:31.909Z,94495.46
2023-04-10T03:25:06.001Z,94493.81
2023-04-10T03:25:39.579Z,94494.21
2023-04-10T03:26:13.679Z,94494.17
2023-04-10T03:26:48.010Z,94490.40
2023-04-10T03:27:22.031Z,94494.61
2023-04-10T03:27:55.806Z,94495.59
2023-04-10T03:28:29.998Z,94493.82
2023-04-10T03:29:04.457Z,94491.73
2023-04-10T03:29:37.905Z,94491.77
2023-04-10T03:30:11.835Z,94492.80
2023-04-10T03:30:47.205Z,94493.59
2023-04-10T03:31:20.856Z,94493.36
2023-04-10T03:31:54.462Z,94494.09
2023-04-10T03:32:31.333Z,94492.23
2023-04-10T03:33:04.659Z,94491.92
2023-04-10T03:33:38.287Z,94491.41
2023-04-10T03:34:11.830Z,94492.88
2023-04-10T03:34:45.360Z,94495.67
2023-04-10T03:35:19.012Z,94496.70
2023-04-10T03:35:53.970Z,94497.70
2023-04-10T03:36:28.246Z,94494.22
2023-04-10T03:37:01.651Z,94494.70
2023-04-10T03:37:36.407Z,94494.39
2023-04-10T03:38:12.511Z,94496.27
2023-04-10T03:38:46.742Z,94497.25
2023-04-10T03:39:21.018Z,94499.12
2023-04-10T03:39:54.418Z,94495.91
2023-04-10T03:40:28.071Z,94497.83
2023-04-10T03:41:02.085Z,94497.98
2023-04-10T03:41:37.252Z,94498.16
2023-04-10T03:42:11.683Z,94503.35
2023-04-10T03:42:45.901Z,94499.34
2023-04-10T03:43:19.656Z,94501.73
2023-04-10T03:43:53.721Z,94500.87
2023-04-10T03:44:27.609Z,94502.95
2023-04-10T03:45:04.937Z,94503.02
2023-04-10T03:45:38.478Z,94506.98
2023-04-10T03:46:12.402Z,94503.77
2023-04-10T03:46:48.335Z,94504.25
2023-04-10T03:47:22.070Z,94504.16
2023-04-10T03:47:56.862Z,94502.63
2023-04-10T03:48:30.919Z,94503.14
2023-04-10T03:49:04.453Z,94504.94
2023-04-10T03:49:38.774Z,94503.90
2023-04-10T03:50:13.323Z,94507.02
2023-04-10T03:51:08.312Z,94509.11
2023-04-10T03:51:41.924Z,94505.05
2023-04-10T03:52:15.645Z,94510.20
2023-04-10T03:52:52.069Z,94508.09
2023-04-10T03:53:26.827Z,94508.33
2023-04-10T03:54:00.959Z,94510.85
2023-04-10T03:54:34.857Z,94505.42
2023-04-10T03:55:08.628Z,94506.96
2023-04-10T03:55:42.322Z,94506.61
2023-04-10T03:56:16.776Z,94503.83
2023-04-10T03:56:51.834Z,94505.90
2023-04-10T03:57:32.100Z,94506.62
2023-04-10T03:58:12.511Z,94499.58
2023-04-10T03:58:46.128Z,94505.69
2023-04-10T03:59:19.879Z,94505.37
2023-04-10T03:59:53.587Z,94505.20
2023-04-10T04:00:27.604Z,94504.97
2023-04-10T04:01:07.952Z,94506.36
2023-04-10T04:01:47.596Z,94502.77
2023-04-10T04:02:21.336Z,94507.25
2023-04-10T04:02:55.542Z,94508.80
2023-04-10T04:03:47.893Z,94508.12
2023-04-10T04:04:40.873Z,94510.66
2023-04-10T04:05:52.746Z,94511.59
2023-04-10T04:06:35.593Z,94511.52
2023-04-10T04:07:18.393Z,94510.97
2023-04-10T04:08:10.254Z,94515.26
2023-04-10T04:09:02.159Z,94517.30
2023-04-10T04:10:10.174Z,94514.25
2023-04-10T04:11:04.783Z,94516.16
2023-04-10T04:12:13.461Z,94514.16
2023-04-10T04:12:46.826Z,94513.92
2023-04-10T04:13:57.552Z,94513.45
2023-04-10T04:14:52.884Z,94513.64
2023-04-10T04:15:53.638Z,94512.83
2023-04-10T04:16:43.674Z,94513.25
2023-04-10T04:17:49.517Z,94514.04
2023-04-10T04:18:41.064Z,94513.07
2023-04-10T04:19:37.467Z,94514.27
2023-04-10T04:20:22.857Z,94516.30
2023-04-10T04:21:08.795Z,94516.16
2023-04-10T04:22:05.048Z,94522.01
2023-04-10T04:22:58.364Z,94520.71
2023-04-10T04:24:11.854Z,94526.05
2023-04-10T04:25:11.807Z,94524.30
2023-04-10T04:26:05.965Z,94521.10
2023-04-10T04:26:59.959Z,94524.55
2023-04-10T04:27:53.922Z,94521.04
2023-04-10T04:28:44.743Z,94521.25
2023-04-10T04:29:39.382Z,94518.77
2023-04-10T04:30:21.482Z,94522.86
2023-04-10T04:31:32.834Z,94522.05
2023-04-10T04:32:21.787Z,94523.38
2023-04-10T04:33:22.313Z,94523.57
2023-04-10T04:34:03.528Z,94523.69
2023-04-10T04:35:06.736Z,94523.08
2023-04-10T04:35:57.422Z,94524.20
2023-04-10T04:36:42.904Z,94523.71
2023-04-10T04:37:42.567Z,94524.23
2023-04-10T04:38:34.132Z,94521.38
2023-04-10T04:39:19.025Z,94523.31
2023-04-10T04:40:11.309Z,94523.48
2023-04-10T04:41:07.783Z,94526.08
2023-04-10T04:42:07.892Z,94524.38
2023-04-10T04:42:54.690Z,94527.41
2023-04-10T04:43:32.885Z,94527.02
2023-04-10T04:44:13.219Z,94526.41
2023-04-10T04:45:05.558Z,94526.81
2023-04-10T04:46:10.977Z,94527.90
2023-04-10T04:47:13.778Z,94524.73
2023-04-10T04:48:52.501Z,94529.45
2023-04-10T04:49:45.880Z,94528.95
2023-04-10T04:50:32.971Z,94531.75
2023-04-10T04:51:09.018Z,94532.77
2023-04-10T04:51:47.641Z,94535.08
2023-04-10T04:52:35.472Z,94531.68
2023-04-10T04:53:21.217Z,94533.12
2023-04-10T04:54:14.868Z,94535.20
2023-04-10T04:55:01.453Z,94537.55
2023-04-10T04:55:55.027Z,94537.85
2023-04-10T04:56:45.023Z,94540.16
2023-04-10T04:57:45.113Z,94540.31
2023-04-10T04:59:04.375Z,94539.08
2023-04-10T04:59:54.177Z,94543.27
2023-04-10T05:00:47.966Z,94544.36
2023-04-10T05:01:47.718Z,94543.88
2023-04-10T05:02:39.851Z,94539.62
2023-04-10T05:03:48.886Z,94538.74
2023-04-10T05:04:49.187Z,94540.88
2023-04-10T05:05:43.368Z,94535.97
2023-04-10T05:06:32.051Z,94538.70
2023-04-10T05:07:34.818Z,94539.59
2023-04-10T05:08:19.963Z,94538.81
2023-04-10T05:09:07.511Z,94539.89
2023-04-10T05:09:59.515Z,94541.08
2023-04-10T05:11:07.603Z,94540.95
2023-04-10T05:11:47.306Z,94541.95
2023-04-10T05:12:27.810Z,94544.79
2023-04-10T05:13:21.693Z,94542.77
2023-04-10T05:14:14.988Z,94542.65
2023-04-10T05:15:04.612Z,94544.39
2023-04-10T05:15:58.293Z,94544.48
2023-04-10T05:16:46.233Z,94544.27
2023-04-10T05:17:30.155Z,94544.91
2023-04-10T05:18:21.873Z,94546.80
2023-04-10T05:19:27.538Z,94539.29
2023-04-10T05:20:21.884Z,94545.29
2023-04-10T05:21:16.062Z,94542.18
2023-04-10T05:22:28.877Z,94541.48
2023-04-10T05:23:31.550Z,94543.04
2023-04-10T05:24:25.225Z,94542.04
2023-04-10T05:25:19.378Z,94545.61
2023-04-10T05:26:31.101Z,94543.17
2023-04-10T05:27:50.472Z,94547.27
2023-04-10T05:29:18.564Z,94544.30
2023-04-10T05:30:04.169Z,94547.79
2023-04-10T05:30:48.156Z,94552.45
2023-04-10T05:31:39.888Z,94546.98
2023-04-10T05:32:36.220Z,94548.74
2023-04-10T05:33:26.234Z,94553.36
2023-04-10T05:34:15.031Z,94552.21
2023-04-10T05:35:07.578Z,94553.90
2023-04-10T05:35:53.689Z,94554.25
2023-04-10T05:36:47.599Z,94555.02
2023-04-10T05:37:28.328Z,94549.98
2023-04-10T05:38:08.945Z,94554.09
2023-04-10T05:38:50.335Z,94547.41
2023-04-10T05:39:42.209Z,94548.31
2023-04-10T05:40:39.127Z,94548.70
2023-04-10T05:41:31.494Z,94549.93
2023-04-10T05:42:23.938Z,94548.33
2023-04-10T05:43:22.564Z,94553.37
2023-04-10T05:44:11.145Z,94550.57
2023-04-10T05:45:04.921Z,94554.20
2023-04-10T05:45:56.692Z,94556.62
2023-04-10T05:47:10.691Z,94554.43
2023-04-10T05:47:47.188Z,94556.70
2023-04-10T05:48:33.747Z,94557.13
2023-04-10T05:49:22.707Z,94555.23
2023-04-10T05:50:14.702Z,94556.96
2023-04-10T05:51:16.969Z,94553.67
2023-04-10T05:52:28.473Z,94554.57
2023-04-10T05:53:14.190Z,94555.33
2023-04-10T05:54:10.589Z,94557.22
2023-04-10T05:55:16.260Z,94558.65
2023-04-10T05:56:02.523Z,94555.63
2023-04-10T05:56:45.241Z,94557.33
2023-04-10T05:57:37.217Z,94558.70
2023-04-10T05:58:43.048Z,94561.05
2023-04-10T05:59:31.734Z,94559.50
2023-04-10T06:00:25.657Z,94559.11
2023-04-10T06:01:29.208Z,94561.15
2023-04-10T06:02:06.582Z,94561.68
2023-04-10T06:02:40.163Z,94560.62
2023-04-10T06:03:18.708Z,94563.02
2023-04-10T06:03:57.908Z,94563.74
2023-04-10T06:04:32.258Z,94561.66
2023-04-10T06:05:07.460Z,94562.71
2023-04-10T06:05:41.809Z,94564.48
2023-04-10T06:06:15.446Z,94562.86
2023-04-10T06:06:49.187Z,94561.52
2023-04-10T06:07:22.748Z,94561.85
2023-04-10T06:07:59.410Z,94562.52
2023-04-10T06:08:33.088Z,94562.54
2023-04-10T06:09:06.627Z,94565.70
2023-04-10T06:09:40.791Z,94569.27
2023-04-10T06:10:14.680Z,94564.08
2023-04-10T06:10:48.127Z,94565.31
2023-04-10T06:11:22.076Z,94565.71
2023-04-10T06:11:58.491Z,94565.86
2023-04-10T06:12:32.345Z,94568.16
2023-04-10T06:13:09.229Z,94568.80
2023-04-10T06:13:44.402Z,94571.61
2023-04-10T06:14:19.751Z,94568.29
2023-04-10T06:14:53.447Z,94570.32
2023-04-10T06:15:28.034Z,94568.84
2023-04-10T06:16:02.584Z,94569.16
2023-04-10T06:16:37.080Z,94571.96
2023-04-10T06:17:10.645Z,94568.98
2023-04-10T06:17:44.708Z,94572.69
2023-04-10T06:18:19.780Z,94573.22
2023-04-10T06:18:55.126Z,94572.44
2023-04-10T06:19:28.869Z,94574.31
2023-04-10T06:20:05.014Z,94575.63
2023-04-10T06:20:38.669Z,94570.71
2023-04-10T06:21:12.152Z,94571.73
2023-04-10T06:21:45.768Z,94572.02
2023-04-10T06:22:19.124Z,94570.94
2023-04-10T06:22:52.561Z,94572.16
2023-04-10T06:23:26.876Z,94571.20
2023-04-10T06:24:00.910Z,94572.83
2023-04-10T06:24:34.480Z,94567.79
2023-04-10T06:25:08.353Z,94572.72
2023-04-10T06:25:41.987Z,94570.88
2023-04-10T06:26:15.679Z,94573.91
2023-04-10T06:26:49.108Z,94573.92
2023-04-10T06:27:22.508Z,94575.12
2023-04-10T06:27:56.424Z,94574.54
2023-04-10T06:28:30.558Z,94572.58
2023-04-10T06:29:06.504Z,94573.55
2023-04-10T06:29:40.646Z,94572.33
2023-04-10T06:30:13.958Z,94570.15
2023-04-10T06:30:47.506Z,94573.73
2023-04-10T06:31:24.232Z,94572.71
2023-04-10T06:31:57.792Z,94573.64
2023-04-10T06:32:31.755Z,94575.58
2023-04-10T06:33:05.368Z,94572.57
2023-04-10T06:33:40.154Z,94574.94
2023-04-10T06:34:14.507Z,94573.52
2023-04-10T06:34:56.182Z,94573.59
2023-04-10T06:35:29.808Z,94571.87
2023-04-10T06:36:04.321Z,94574.77
2023-04-10T06:36:41.023Z,94571.39
2023-04-10T06:37:14.460Z,94571.30
2023-04-10T06:37:47.959Z,94572.25
2023-04-10T06:38:21.978Z,94569.08
2023-04-10T06:38:55.801Z,94573.44
2023-04-10T06:39:29.698Z,94575.61
2023-04-10T06:40:08.824Z,94575.27
2023-04-10T06:40:42.281Z,94574.98
2023-04-10T06:41:15.893Z,94568.95
2023-04-10T06:41:49.436Z,94571.13
2023-04-10T06:42:35.601Z,94573.15
2023-04-10T06:43:15.158Z,94576.11
2023-04-10T06:43:49.312Z,94576.71
2023-04-10T06:44:22.798Z,94575.91
2023-04-10T06:44:56.115Z,94575.09
2023-04-10T06:45:29.623Z,94577.18
2023-04-10T06:46:05.196Z,94578.06
2023-04-10T06:46:38.998Z,94579.66
2023-04-10T06:47:13.426Z,94582.29
2023-04-10T06:47:47.101Z,94580.69
2023-04-10T06:48:20.630Z,94586.38
2023-04-10T06:48:54.287Z,94582.56
2023-04-10T06:49:27.813Z,94582.41
2023-04-10T06:50:01.357Z,94582.38
2023-04-10T06:50:34.985Z,94582.42
2023-04-10T06:51:08.430Z,94584.44
2023-04-10T06:51:42.080Z,94580.58
2023-04-10T06:52:15.589Z,94584.68
2023-04-10T06:52:49.065Z,94583.20
2023-04-10T06:53:22.596Z,94584.66
2023-04-10T06:53:56.429Z,94581.16
2023-04-10T06:54:29.926Z,94579.28
2023-04-10T06:55:03.512Z,94583.11
2023-04-10T06:55:37.849Z,94583.98
2023-04-10T06:56:11.448Z,94582.27
2023-04-10T06:56:44.850Z,94579.95
2023-04-10T06:57:19.063Z,94581.73
2023-04-10T06:57:52.724Z,94580.14
2023-04-10T06:58:26.565Z,94579.61
2023-04-10T06:58:59.917Z,94582.17
2023-04-10T06:59:35.076Z,94581.18
2023-04-10T07:00:09.778Z,94582.63
2023-04-10T07:00:43.438Z,94580.83
2023-04-10T07:01:17.980Z,94578.92
2023-04-10T07:01:51.483Z,94583.95
2023-04-10T07:02:25.185Z,94581.13
2023-04-10T07:02:58.670Z,94583.71
2023-04-10T07:03:32.944Z,94583.48
2023-04-10T07:04:06.632Z,94589.45
2023-04-10T07:04:39.970Z,94589.73
2023-04-10T07:05:14.450Z,94592.23
2023-04-10T07:05:47.937Z,94590.60
2023-04-10T07:06:21.473Z,94590.92
2023-04-10T07:06:54.969Z,94592.55
2023-04-10T07:07:29.422Z,94594.73
2023-04-10T07:08:02.886Z,94591.33
2023-04-10T07:08:49.350Z,94594.37
2023-04-10T07:09:26.406Z,94588.78
2023-04-10T07:09:59.837Z,94588.50
2023-04-10T07:10:33.286Z,94591.33
2023-04-10T07:11:07.071Z,94591.77
2023-04-10T07:11:40.881Z,94586.66
2023-04-10T07:12:14.294Z,94589.05
2023-04-10T07:12:47.830Z,94592.12
2023-04-10T07:13:21.646Z,94591.48
2023-04-10T07:13:58.797Z,94588.77
2023-04-10T07:14:34.010Z,94589.64
2023-04-10T07:15:08.572Z,94591.73
2023-04-10T07:15:42.172Z,94591.16
2023-04-10T07:16:17.254Z,94590.58
2023-04-10T07:16:51.414Z,94594.77
2023-04-10T07:17:25.072Z,94587.91
2023-04-10T07:17:58.435Z,94590.48
2023-04-10T07:18:31.850Z,94591.81
2023-04-10T07:19:05.426Z,94591.61
2023-04-10T07:19:38.740Z,94595.29
2023-04-10T07:20:12.336Z,94593.00
2023-04-10T07:20:45.782Z,94590.67
2023-04-10T07:21:19.151Z,94594.70
2023-04-10T07:21:52.531Z,94596.91
2023-04-10T07:22:26.619Z,94598.20
2023-04-10T07:23:00.134Z,94595.25
2023-04-10T07:23:36.624Z,94592.55
2023-04-10T07:24:10.046Z,94597.60
2023-04-10T07:24:43.626Z,94600.84
2023-04-10T07:25:18.562Z,94597.27
2023-04-10T07:25:52.356Z,94597.96
2023-04-10T07:26:26.348Z,94601.83
2023-04-10T07:27:00.980Z,94601.89
2023-04-10T07:27:34.567Z,94600.16
2023-04-10T07:28:07.987Z,94600.54
2023-04-10T07:28:41.551Z,94600.52
2023-04-10T07:29:15.683Z,94598.60
2023-04-10T07:29:49.038Z,94598.98
2023-04-10T07:30:22.504Z,94597.74
2023-04-10T07:30:56.019Z,94595.94
2023-04-10T07:31:29.643Z,94597.90
2023-04-10T07:32:03.388Z,94597.04
2023-04-10T07:32:37.774Z,94594.16
2023-04-10T07:33:11.594Z,94594.65
2023-04-10T07:33:47.010Z,94592.73
2023-04-10T07:34:20.455Z,94590.11
2023-04-10T07:34:53.955Z,94592.98
2023-04-10T07:35:27.617Z,94592.36
2023-04-10T07:36:02.731Z,94598.20
2023-04-10T07:36:36.630Z,94595.99
2023-04-10T07:37:10.144Z,94594.50
2023-04-10T07:37:44.429Z,94590.23
2023-04-10T07:38:18.171Z,94595.63
2023-04-10T07:38:52.040Z,94594.24
2023-04-10T07:39:25.722Z,94591.65
2023-04-10T07:39:59.255Z,94596.11
2023-04-10T07:40:32.737Z,94592.85
2023-04-10T07:41:06.487Z,94594.04
2023-04-10T07:41:40.538Z,94591.42